Time;durP1;ratioP1;P1;durP2;ratioP2;P2;SDS_P1;SDS_P2;PMS_P1;PMS_P2;Temp;Humidity;BMP_temperature;BMP_pressure;BME280_temperature;BME280_humidity;BME280_pressure;Samples;Min_cycle;Max_cycle;Signal;HPM_P1;HPM_P2
2021/07/30 00:00:07;;;;;;;;;;;;;;;22.66;41.50;101048.97;5066820;28;19917;-88
2021/07/30 00:02:32;;;;;;;;;;;;;;;22.71;41.22;101048.56;5066756;28;19916;-88
2021/07/30 00:04:58;;;;;;;;;;;;;;;23.33;40.08;101047.09;5066287;28;20007;-87
2021/07/30 00:07:23;;;;;;;;;;;;;;;22.87;41.15;101046.03;5067736;28;20020;-88
2021/07/30 00:09:48;;;;;;;;;;;;;;;23.07;40.87;101052.38;5074350;28;19916;-88
2021/07/30 00:12:14;;;;;;;;;;;;;;;22.80;41.27;101043.00;5077216;28;19923;-88
2021/07/30 00:14:39;;;;;;;;;;;;;;;22.95;41.22;101048.94;5077725;28;19932;-88
2021/07/30 00:17:04;;;;;;;;;;;;;;;22.55;42.21;101047.25;5078246;28;19917;-86
2021/07/30 00:19:29;;;;;;;;;;;;;;;22.61;41.57;101040.28;5077236;28;19920;-87
2021/07/30 00:21:54;;;;;;;;;;;;;;;22.22;42.76;101043.00;5096032;28;19912;-86
2021/07/30 00:24:20;;;;;;;;;;;;;;;22.90;41.08;101045.72;5079374;28;19980;-87
2021/07/30 00:26:45;;;;;;;;;;;;;;;22.96;40.85;101044.28;5082247;28;19917;-87
2021/07/30 00:29:10;;;;;;;;;;;;;;;22.44;42.23;101034.50;5083144;28;19913;-87
2021/07/30 00:31:36;;;;;;;;;;;;;;;22.19;42.89;101035.91;5092301;28;19909;-87
2021/07/30 00:34:01;;;;;;;;;;;;;;;22.64;41.67;101029.81;5068218;28;19917;-88
2021/07/30 00:36:26;;;;;;;;;;;;;;;22.36;42.59;101037.13;5067771;28;20397;-87
2021/07/30 00:38:52;;;;;;;;;;;;;;;22.26;42.93;101034.31;5085199;28;19916;-87
2021/07/30 00:41:17;;;;;;;;;;;;;;;22.19;42.93;101030.38;5066818;28;19962;-87
2021/07/30 00:43:42;;;;;;;;;;;;;;;22.20;42.80;101042.31;5067221;28;19924;-87
2021/07/30 00:46:07;;;;;;;;;;;;;;;22.26;42.88;101037.06;5066443;28;19916;-88
2021/07/30 00:48:33;;;;;;;;;;;;;;;22.84;41.54;101029.78;5066383;28;19916;-85
2021/07/30 00:50:58;;;;;;;;;;;;;;;22.47;42.00;101034.19;5066633;28;19916;-88
2021/07/30 00:53:25;;;;;;;;;;;;;;;22.46;42.31;101032.47;5065951;28;19998;-87
2021/07/30 00:55:50;;;;;;;;;;;;;;;22.79;41.51;101027.47;5065223;28;19916;-87
2021/07/30 00:58:16;;;;;;;;;;;;;;;22.98;40.73;101014.66;5065782;28;19923;-88
2021/07/30 01:00:41;;;;;;;;;;;;;;;23.27;40.44;101016.47;5064651;28;19939;-88
2021/07/30 01:03:07;;;;;;;;;;;;;;;23.34;40.25;101023.09;5065294;28;19985;-88
2021/07/30 01:05:33;;;;;;;;;;;;;;;23.33;40.10;101013.97;5065447;28;19916;-87
2021/07/30 01:07:59;;;;;;;;;;;;;;;23.25;40.29;101011.09;5065232;28;20010;-87
2021/07/30 01:10:24;;;;;;;;;;;;;;;22.81;41.24;101021.81;5065333;28;19975;-88
2021/07/30 01:12:50;;;;;;;;;;;;;;;22.91;41.31;101022.66;5066268;28;19929;-88
2021/07/30 01:15:15;;;;;;;;;;;;;;;22.80;41.66;101020.94;5069727;28;19939;-87
2021/07/30 01:17:40;;;;;;;;;;;;;;;22.54;42.55;101023.47;5077182;28;19916;-87
2021/07/30 01:20:06;;;;;;;;;;;;;;;22.55;42.21;101025.19;5075196;28;19916;-84
2021/07/30 01:22:32;;;;;;;;;;;;;;;22.57;42.31;101022.28;5074705;28;20324;-87
2021/07/30 01:24:57;;;;;;;;;;;;;;;22.89;41.57;101027.47;5065970;28;19916;-88
2021/07/30 01:27:23;;;;;;;;;;;;;;;22.85;41.76;101022.41;5064605;28;19947;-87
2021/07/30 01:29:48;;;;;;;;;;;;;;;22.88;41.56;101025.72;5064561;28;19924;-86
2021/07/30 01:32:14;;;;;;;;;;;;;;;22.81;41.85;101027.31;5064054;28;19916;-87
2021/07/30 01:34:40;;;;;;;;;;;;;;;22.81;41.59;101019.94;5064119;28;20054;-89
2021/07/30 01:37:05;;;;;;;;;;;;;;;23.05;41.22;101024.06;5064482;28;19948;-88
2021/07/30 01:39:30;;;;;;;;;;;;;;;23.36;40.38;101018.31;5091525;28;19921;-87
2021/07/30 01:41:56;;;;;;;;;;;;;;;23.18;40.94;101012.72;5071432;28;19912;-88
2021/07/30 01:44:21;;;;;;;;;;;;;;;22.70;42.49;101014.56;5067346;28;19924;-88
2021/07/30 01:46:47;;;;;;;;;;;;;;;22.62;42.67;101015.31;5065773;28;19924;-88
2021/07/30 01:49:12;;;;;;;;;;;;;;;22.59;42.66;101014.75;5064398;28;19987;-87
2021/07/30 01:51:37;;;;;;;;;;;;;;;22.74;42.50;101017.91;5082514;28;20374;-87
2021/07/30 01:54:03;;;;;;;;;;;;;;;22.76;42.57;101016.72;5064342;28;19919;-87
2021/07/30 01:56:28;;;;;;;;;;;;;;;22.60;42.85;101010.97;5064458;28;19923;-88
2021/07/30 01:58:54;;;;;;;;;;;;;;;22.76;42.37;101018.63;5063454;28;19916;-88
2021/07/30 02:01:19;;;;;;;;;;;;;;;22.32;43.77;101018.25;5062981;28;20053;-87
2021/07/30 02:03:44;;;;;;;;;;;;;;;22.05;44.26;101015.16;5063746;28;19917;-86
2021/07/30 02:06:09;;;;;;;;;;;;;;;22.03;44.55;101019.09;5063313;28;19917;-88
2021/07/30 02:08:35;;;;;;;;;;;;;;;21.90;44.96;101017.44;5063523;28;19916;-88
2021/07/30 02:11:06;;;;;;;;;;;;;;;21.54;45.83;101019.88;5063591;28;19967;-88
2021/07/30 02:16:15;;;;;;;;;;;;;;;21.56;46.16;101008.72;5081329;28;19927;-88
2021/07/30 02:18:40;;;;;;;;;;;;;;;21.52;46.58;101005.34;5081215;28;19921;-88
2021/07/30 02:21:05;;;;;;;;;;;;;;;21.76;45.85;101006.88;5081616;28;19917;-86
2021/07/30 02:23:30;;;;;;;;;;;;;;;21.42;46.96;100999.81;5063498;28;19980;-88
2021/07/30 02:25:56;;;;;;;;;;;;;;;22.30;44.83;100993.56;5063988;28;19970;-86
2021/07/30 02:28:21;;;;;;;;;;;;;;;21.85;45.40;100995.00;5063672;28;19916;-88
2021/07/30 02:30:46;;;;;;;;;;;;;;;21.77;45.57;100997.59;5064101;28;19921;-88
2021/07/30 02:33:11;;;;;;;;;;;;;;;21.98;45.49;100993.84;5063900;28;19923;-87
2021/07/30 02:35:37;;;;;;;;;;;;;;;21.49;46.87;100986.34;5081494;28;19916;-86
2021/07/30 02:38:02;;;;;;;;;;;;;;;21.51;46.87;100983.47;5062859;28;20369;-88
2021/07/30 02:40:27;;;;;;;;;;;;;;;21.42;46.88;100985.16;5062889;28;20054;-87
2021/07/30 02:42:52;;;;;;;;;;;;;;;21.52;46.83;100980.56;5063670;28;19932;-86
2021/07/30 02:45:17;;;;;;;;;;;;;;;22.04;45.34;100983.13;5081829;28;20457;-87
2021/07/30 02:47:43;;;;;;;;;;;;;;;21.98;45.79;100988.34;5063000;28;19924;-87
2021/07/30 02:50:08;;;;;;;;;;;;;;;21.85;45.96;100983.97;5064176;28;19917;-87
2021/07/30 02:52:33;;;;;;;;;;;;;;;21.76;46.23;100980.19;5063178;28;20008;-88
2021/07/30 02:54:58;;;;;;;;;;;;;;;21.72;46.41;100981.47;5063462;28;20361;-87
2021/07/30 02:57:24;;;;;;;;;;;;;;;21.70;46.15;100980.75;5062888;28;19924;-88
2021/07/30 02:59:49;;;;;;;;;;;;;;;21.73;46.62;100987.88;5063519;28;19923;-86
2021/07/30 03:02:14;;;;;;;;;;;;;;;21.95;45.90;100975.69;5063597;28;19912;-88
2021/07/30 03:04:40;;;;;;;;;;;;;;;21.52;46.86;100975.06;5063302;28;19963;-87
2021/07/30 03:07:05;;;;;;;;;;;;;;;21.68;46.41;100969.03;5064245;28;19924;-88
2021/07/30 03:09:30;;;;;;;;;;;;;;;21.65;46.61;100972.06;5064772;28;19912;-87
2021/07/30 03:11:56;;;;;;;;;;;;;;;21.19;47.93;100966.09;5067849;28;19923;-88
2021/07/30 03:14:21;;;;;;;;;;;;;;;21.75;46.65;100967.41;5073051;28;19947;-88
2021/07/30 03:16:46;;;;;;;;;;;;;;;21.28;47.96;100967.16;5088265;28;20031;-86
2021/07/30 03:19:11;;;;;;;;;;;;;;;21.44;47.62;100972.13;5077091;28;19916;-88
2021/07/30 03:21:39;;;;;;;;;;;;;;;21.92;46.08;100968.63;5068377;28;19920;-87
2021/07/30 03:24:04;;;;;;;;;;;;;;;21.87;46.45;100965.41;5067270;28;19917;-88
2021/07/30 03:26:30;;;;;;;;;;;;;;;21.77;46.69;100957.16;5067475;28;19913;-87
2021/07/30 03:28:55;;;;;;;;;;;;;;;21.79;46.77;100959.75;5067423;28;19997;-88
2021/07/30 03:31:21;;;;;;;;;;;;;;;22.24;45.55;100950.06;5066946;28;19928;-88
2021/07/30 03:33:46;;;;;;;;;;;;;;;21.82;46.52;100950.34;5066672;28;19913;-88
2021/07/30 03:36:11;;;;;;;;;;;;;;;21.51;47.46;100959.56;5066816;28;19916;-87
2021/07/30 03:38:36;;;;;;;;;;;;;;;21.51;47.53;100951.31;5066548;28;19916;-88
2021/07/30 03:41:02;;;;;;;;;;;;;;;22.01;46.04;100954.97;5085058;28;19913;-87
2021/07/30 03:43:27;;;;;;;;;;;;;;;21.81;47.12;100957.72;5066598;28;19925;-87
2021/07/30 03:45:53;;;;;;;;;;;;;;;21.66;47.36;100964.66;5066560;28;19912;-88
2021/07/30 03:48:18;;;;;;;;;;;;;;;21.83;46.91;100952.97;5072986;28;19988;-86
2021/07/30 03:50:44;;;;;;;;;;;;;;;21.83;47.57;100969.50;5082125;28;19911;-88
2021/07/30 03:53:10;;;;;;;;;;;;;;;21.96;47.00;100963.69;5082996;28;19931;-87
2021/07/30 03:55:35;;;;;;;;;;;;;;;22.09;46.92;100963.41;5078770;28;19927;-87
2021/07/30 03:58:00;;;;;;;;;;;;;;;21.70;47.59;100960.63;5095783;28;19942;-87
2021/07/30 04:00:41;;;;;;;;;;;;;;;21.32;49.46;100960.38;5068817;28;19916;-89
2021/07/30 04:03:06;;;;;;;;;;;;;;;21.70;48.13;100957.88;5067903;28;19948;-89
2021/07/30 04:05:31;;;;;;;;;;;;;;;22.00;47.70;100965.13;5065365;28;19974;-87
2021/07/30 04:07:56;;;;;;;;;;;;;;;21.45;49.49;100964.75;5064588;28;19922;-88
2021/07/30 04:10:22;;;;;;;;;;;;;;;21.79;48.27;100951.50;5065392;28;19966;-88
2021/07/30 04:12:47;;;;;;;;;;;;;;;21.37;49.63;100954.44;5083410;28;20293;-88
2021/07/30 04:15:12;;;;;;;;;;;;;;;21.42;49.83;100949.38;5066050;28;19996;-88
2021/07/30 04:17:38;;;;;;;;;;;;;;;21.49;49.94;100949.69;5065763;28;19923;-88
2021/07/30 04:20:03;;;;;;;;;;;;;;;21.37;50.31;100936.03;5064735;28;20354;-87
2021/07/30 04:22:28;;;;;;;;;;;;;;;21.81;48.78;100932.94;5064571;28;20341;-87
2021/07/30 04:24:54;;;;;;;;;;;;;;;21.53;49.79;100929.13;5065573;28;19940;-88
2021/07/30 04:27:19;;;;;;;;;;;;;;;22.54;46.20;100924.22;5065670;28;19960;-87
2021/07/30 04:29:44;;;;;;;;;;;;;;;21.40;50.01;100937.63;5064120;28;20304;-88
2021/07/30 04:32:10;;;;;;;;;;;;;;;22.27;47.80;100930.47;5064822;28;19935;-88
2021/07/30 04:34:39;;;;;;;;;;;;;;;21.94;48.54;100928.03;5082289;28;19917;-87
2021/07/30 04:37:04;;;;;;;;;;;;;;;21.91;48.75;100932.97;5063987;28;19923;-89
2021/07/30 04:39:30;;;;;;;;;;;;;;;21.72;49.63;100933.81;5065126;28;19920;-90
2021/07/30 04:41:55;;;;;;;;;;;;;;;21.25;50.79;100931.66;5065499;28;19934;-87
2021/07/30 04:44:20;;;;;;;;;;;;;;;21.09;51.20;100926.72;5063563;28;19928;-88
2021/07/30 04:46:46;;;;;;;;;;;;;;;21.48;50.48;100910.25;5081287;28;19916;-88
2021/07/30 04:49:11;;;;;;;;;;;;;;;21.61;49.65;100914.69;5062724;28;19919;-89
2021/07/30 04:51:37;;;;;;;;;;;;;;;21.53;50.35;100918.13;5065166;28;19996;-91
2021/07/30 04:54:02;;;;;;;;;;;;;;;21.92;49.21;100913.53;5065103;28;20010;-90
2021/07/30 04:56:27;;;;;;;;;;;;;;;20.97;52.17;100917.69;5065714;28;19916;-89
2021/07/30 04:58:53;;;;;;;;;;;;;;;21.39;50.41;100906.50;5054347;28;19970;-91
2021/07/30 05:01:18;;;;;;;;;;;;;;;21.68;50.06;100913.06;5059782;28;19943;-90
2021/07/30 05:03:44;;;;;;;;;;;;;;;21.70;49.99;100914.69;5062324;28;19905;-90
2021/07/30 05:06:13;;;;;;;;;;;;;;;21.20;51.08;100918.31;5066168;28;20009;-89
2021/07/30 05:08:38;;;;;;;;;;;;;;;20.79;52.33;100911.06;5067494;28;19994;-89
2021/07/30 05:11:03;;;;;;;;;;;;;;;21.42;50.37;100917.22;5074029;28;20408;-89
2021/07/30 05:13:29;;;;;;;;;;;;;;;21.83;49.43;100911.66;5069133;28;19978;-90
2021/07/30 05:15:54;;;;;;;;;;;;;;;21.98;48.48;100911.19;5072643;28;19924;-89
2021/07/30 05:18:19;;;;;;;;;;;;;;;22.05;48.32;100910.47;5060751;28;19921;-90
2021/07/30 05:20:45;;;;;;;;;;;;;;;22.67;46.58;100907.31;5052844;28;19928;-90
2021/07/30 05:23:11;;;;;;;;;;;;;;;22.65;46.55;100910.22;5044407;28;19932;-89
2021/07/30 05:25:36;;;;;;;;;;;;;;;22.63;46.25;100906.75;5041798;28;19917;-91
2021/07/30 05:28:02;;;;;;;;;;;;;;;22.80;45.61;100905.09;5039281;28;20004;-90
2021/07/30 05:30:27;;;;;;;;;;;;;;;22.18;47.30;100903.78;5038942;28;19924;-89
2021/07/30 05:32:52;;;;;;;;;;;;;;;21.93;47.79;100904.22;5058194;28;19988;-89
2021/07/30 05:35:20;;;;;;;;;;;;;;;21.55;49.18;100894.97;5047146;28;19944;-92
2021/07/30 05:37:45;;;;;;;;;;;;;;;22.14;47.51;100900.44;5040788;28;19924;-90
2021/07/30 05:40:23;;;;;;;;;;;;;;;21.78;48.61;100894.69;5056579;28;19920;-90
2021/07/30 05:42:48;;;;;;;;;;;;;;;22.05;47.83;100890.31;5038768;28;20013;-91
2021/07/30 05:45:13;;;;;;;;;;;;;;;22.10;47.25;100897.13;5043044;28;19967;-88
2021/07/30 05:47:38;;;;;;;;;;;;;;;21.86;47.44;100905.84;5039831;28;19917;-92
2021/07/30 05:50:04;;;;;;;;;;;;;;;21.63;48.37;100893.38;5042430;28;19917;-90
2021/07/30 05:52:30;;;;;;;;;;;;;;;22.10;47.59;100890.72;5029827;28;19927;-90
2021/07/30 05:54:55;;;;;;;;;;;;;;;22.74;45.19;100880.88;5051327;28;19916;-90
2021/07/30 05:57:21;;;;;;;;;;;;;;;22.63;44.94;100887.47;5054294;28;20020;-91
2021/07/30 05:59:49;;;;;;;;;;;;;;;23.01;44.13;100891.06;5057232;28;19928;-90
2021/07/30 06:02:14;;;;;;;;;;;;;;;23.06;43.93;100878.69;5058380;28;20508;-87
2021/07/30 06:04:39;;;;;;;;;;;;;;;23.38;43.06;100885.66;5059665;28;19978;-91
2021/07/30 06:07:04;;;;;;;;;;;;;;;23.40;42.69;100875.31;5058071;28;19913;-90
2021/07/30 06:09:30;;;;;;;;;;;;;;;23.52;42.40;100885.09;5058071;28;19925;-91
2021/07/30 06:11:55;;;;;;;;;;;;;;;23.18;42.78;100886.63;5060566;28;19916;-92
2021/07/30 06:14:21;;;;;;;;;;;;;;;23.68;41.43;100881.63;5079002;28;19998;-92
2021/07/30 06:16:46;;;;;;;;;;;;;;;24.45;40.00;100881.06;5043287;28;19942;-88
2021/07/30 06:19:11;;;;;;;;;;;;;;;23.54;41.39;100883.06;5078571;28;19924;-86
2021/07/30 06:21:36;;;;;;;;;;;;;;;23.48;42.28;100881.78;5059596;28;20460;-87
2021/07/30 06:24:01;;;;;;;;;;;;;;;23.61;41.42;100877.75;5059980;28;20310;-89
2021/07/30 06:26:27;;;;;;;;;;;;;;;23.48;41.85;100873.50;5059847;28;19912;-89
2021/07/30 06:28:52;;;;;;;;;;;;;;;24.11;40.22;100868.03;5075138;28;20337;-88
2021/07/30 06:31:17;;;;;;;;;;;;;;;24.08;40.17;100868.34;5057516;28;19923;-89
2021/07/30 06:33:42;;;;;;;;;;;;;;;24.10;39.58;100863.56;5057478;28;20184;-90
2021/07/30 06:36:09;;;;;;;;;;;;;;;23.94;39.91;100867.03;5058597;28;20015;-89
2021/07/30 06:38:34;;;;;;;;;;;;;;;23.43;40.83;100859.31;5057853;28;20416;-89
2021/07/30 06:40:59;;;;;;;;;;;;;;;24.00;39.56;100860.88;5057823;28;19921;-90
2021/07/30 06:43:25;;;;;;;;;;;;;;;23.43;40.47;100866.72;5058954;28;19932;-87
2021/07/30 06:45:50;;;;;;;;;;;;;;;23.87;39.80;100856.63;5058004;28;19948;-90
2021/07/30 06:48:15;;;;;;;;;;;;;;;23.83;39.66;100859.84;5057424;28;20001;-90
2021/07/30 06:50:40;;;;;;;;;;;;;;;24.41;38.47;100858.38;5057304;28;19920;-89
2021/07/30 06:53:05;;;;;;;;;;;;;;;24.56;38.19;100856.78;5060196;28;19920;-87
2021/07/30 06:55:31;;;;;;;;;;;;;;;24.11;39.09;100856.97;5059018;28;19963;-85
2021/07/30 06:57:56;;;;;;;;;;;;;;;24.74;38.14;100851.19;5077078;28;19923;-85
2021/07/30 07:00:21;;;;;;;;;;;;;;;24.34;38.87;100846.28;5079780;28;20022;-88
2021/07/30 07:02:47;;;;;;;;;;;;;;;23.99;39.44;100854.50;5083841;28;19916;-91
2021/07/30 07:05:12;;;;;;;;;;;;;;;23.77;39.56;100852.19;5091858;28;19901;-88
2021/07/30 07:07:38;;;;;;;;;;;;;;;24.54;37.85;100844.13;5077777;28;19923;-91
2021/07/30 07:10:06;;;;;;;;;;;;;;;24.95;37.60;100838.81;5079564;28;19904;-91
2021/07/30 07:12:31;;;;;;;;;;;;;;;24.43;38.03;100837.00;5084085;28;19927;-90
2021/07/30 07:14:56;;;;;;;;;;;;;;;24.20;38.71;100832.00;5083888;28;19929;-88
2021/07/30 07:17:22;;;;;;;;;;;;;;;23.56;40.48;100836.81;5083564;28;19916;-94
2021/07/30 07:19:47;;;;;;;;;;;;;;;24.96;38.53;100832.25;5082402;28;19956;-89
2021/07/30 07:22:29;;;;;;;;;;;;;;;25.17;38.26;100830.91;5068364;28;19974;-93
2021/07/30 07:24:58;;;;;;;;;;;;;;;24.94;39.04;100831.53;5064123;28;19920;-93
2021/07/30 07:27:24;;;;;;;;;;;;;;;24.64;39.54;100828.31;5063403;28;19916;-91
2021/07/30 07:29:49;;;;;;;;;;;;;;;24.88;39.89;100821.13;5062462;28;19917;-90
2021/07/30 07:32:14;;;;;;;;;;;;;;;25.21;39.74;100805.50;5061516;28;19917;-91
2021/07/30 07:34:40;;;;;;;;;;;;;;;24.85;40.72;100810.41;5062402;28;19917;-90
2021/07/30 07:37:05;;;;;;;;;;;;;;;25.46;39.62;100809.19;5062669;28;19924;-91
2021/07/30 07:39:31;;;;;;;;;;;;;;;25.46;39.75;100792.56;5065439;28;20003;-90
2021/07/30 07:41:57;;;;;;;;;;;;;;;24.97;40.19;100800.78;5063794;28;19917;-91
2021/07/30 07:44:22;;;;;;;;;;;;;;;24.28;41.11;100802.66;5063746;28;19920;-89
2021/07/30 07:46:48;;;;;;;;;;;;;;;24.49;40.61;100793.97;5062021;28;19981;-91
2021/07/30 07:49:13;;;;;;;;;;;;;;;25.72;38.71;100787.91;5060969;28;19913;-91
2021/07/30 07:51:38;;;;;;;;;;;;;;;25.06;39.69;100785.94;5061465;28;19960;-87
2021/07/30 07:54:04;;;;;;;;;;;;;;;25.37;38.91;100790.84;5064352;28;20404;-93
2021/07/30 07:56:29;;;;;;;;;;;;;;;25.86;38.74;100780.78;5061840;28;19917;-91
2021/07/30 07:58:54;;;;;;;;;;;;;;;24.93;40.70;100791.94;5063098;28;19924;-92
2021/07/30 08:01:20;;;;;;;;;;;;;;;25.21;40.05;100791.66;5060613;28;19912;-92
2021/07/30 08:04:03;;;;;;;;;;;;;;;25.16;40.31;100785.75;5060657;28;19948;-92
2021/07/30 08:06:29;;;;;;;;;;;;;;;25.34;40.40;100788.41;5079853;28;19951;-91
2021/07/30 08:08:54;;;;;;;;;;;;;;;25.75;39.29;100782.88;5063422;28;19900;-93
2021/07/30 08:11:20;;;;;;;;;;;;;;;25.75;39.47;100777.34;5060327;22;19925;-86
2021/07/30 08:13:45;;;;;;;;;;;;;;;25.81;38.56;100773.84;5019449;28;19918;-84
2021/07/30 08:16:10;;;;;;;;;;;;;;;26.09;38.15;100778.19;5019612;28;19921;-84
2021/07/30 08:18:35;;;;;;;;;;;;;;;26.09;37.21;100781.84;5020908;28;19917;-86
2021/07/30 08:21:01;;;;;;;;;;;;;;;26.60;36.26;100778.72;5013418;28;19929;-87
2021/07/30 08:23:26;;;;;;;;;;;;;;;27.55;35.13;100766.56;5029320;28;19984;-82
2021/07/30 08:25:52;;;;;;;;;;;;;;;27.45;34.48;100781.72;5006894;28;19928;-81
2021/07/30 08:28:17;;;;;;;;;;;;;;;27.29;34.63;100774.38;5028437;28;19928;-81
2021/07/30 08:30:42;;;;;;;;;;;;;;;26.93;34.81;100767.47;5035289;28;19976;-80
2021/07/30 08:33:08;;;;;;;;;;;;;;;27.35;34.72;100765.34;5018276;28;19924;-80
2021/07/30 08:35:34;;;;;;;;;;;;;;;27.23;34.81;100760.16;5016251;28;19956;-83
2021/07/30 08:37:59;;;;;;;;;;;;;;;27.96;34.07;100761.66;5052724;28;19931;-82
2021/07/30 08:40:28;;;;;;;;;;;;;;;26.93;35.11;100763.84;5024089;28;19926;-82
2021/07/30 08:42:53;;;;;;;;;;;;;;;27.12;34.86;100763.38;5012408;28;19925;-84
2021/07/30 08:45:19;;;;;;;;;;;;;;;27.86;33.77;100757.22;5014241;28;20012;-82
2021/07/30 08:47:44;;;;;;;;;;;;;;;27.89;33.90;100753.22;4996814;28;20005;-81
2021/07/30 08:50:10;;;;;;;;;;;;;;;27.43;34.58;100748.59;5014137;28;19921;-81
2021/07/30 08:52:36;;;;;;;;;;;;;;;26.82;34.67;100754.03;4996194;28;19925;-83
2021/07/30 08:55:02;;;;;;;;;;;;;;;26.78;34.91;100738.78;5040943;28;19962;-85
2021/07/30 08:57:27;;;;;;;;;;;;;;;27.12;34.63;100741.16;5036271;28;19954;-80
2021/07/30 08:59:52;;;;;;;;;;;;;;;27.63;34.42;100742.50;5053675;28;19963;-81
2021/07/30 09:02:17;;;;;;;;;;;;;;;27.26;34.09;100728.38;5035759;28;20041;-82
2021/07/30 09:04:43;;;;;;;;;;;;;;;27.45;34.52;100729.81;5053875;28;20012;-80
2021/07/30 09:07:08;;;;;;;;;;;;;;;27.47;34.15;100733.28;5053146;28;19931;-80
2021/07/30 09:09:34;;;;;;;;;;;;;;;27.35;34.46;100726.44;5053476;28;20015;-80
2021/07/30 09:12:00;;;;;;;;;;;;;;;27.69;34.26;100727.84;5052828;28;20415;-80
2021/07/30 09:14:39;;;;;;;;;;;;;;;27.23;34.26;100718.50;5053265;28;19935;-81
2021/07/30 09:17:05;;;;;;;;;;;;;;;27.76;33.44;100726.06;5021094;28;19968;-83
2021/07/30 09:19:30;;;;;;;;;;;;;;;26.74;34.87;100718.84;5033453;28;19972;-79
2021/07/30 09:22:06;;;;;;;;;;;;;;;27.04;34.72;100721.78;5033099;28;20286;-80
2021/07/30 09:24:38;;;;;;;;;;;;;;;27.83;33.94;100727.03;5014730;28;20012;-80
2021/07/30 09:27:04;;;;;;;;;;;;;;;28.21;32.89;100713.06;5015322;28;19930;-79
2021/07/30 09:29:32;;;;;;;;;;;;;;;27.35;34.31;100716.19;5015348;28;19921;-79
2021/07/30 09:31:57;;;;;;;;;;;;;;;26.78;35.10;100717.41;5015059;28;19968;-79
2021/07/30 09:34:23;;;;;;;;;;;;;;;26.68;35.88;100716.81;5015237;28;20003;-80
2021/07/30 09:36:50;;;;;;;;;;;;;;;28.25;33.75;100697.72;5032814;28;19924;-79
2021/07/30 09:39:17;;;;;;;;;;;;;;;28.83;32.58;100702.53;5032887;28;19921;-79
2021/07/30 09:41:51;;;;;;;;;;;;;;;27.33;35.34;100709.97;5015024;28;19921;-78
2021/07/30 09:44:17;;;;;;;;;;;;;;;27.73;34.49;100706.97;5014947;28;20334;-80
2021/07/30 09:46:42;;;;;;;;;;;;;;;26.75;36.21;100703.06;5032646;28;20462;-78
2021/07/30 09:49:07;;;;;;;;;;;;;;;27.82;34.05;100697.50;5032815;28;19953;-80
2021/07/30 09:51:33;;;;;;;;;;;;;;;27.88;33.92;100710.63;5014820;28;20333;-79
2021/07/30 09:53:59;;;;;;;;;;;;;;;27.27;34.94;100707.03;5029901;28;19924;-81
2021/07/30 09:56:24;;;;;;;;;;;;;;;26.98;35.77;100698.41;5012685;28;20051;-82
2021/07/30 09:58:54;;;;;;;;;;;;;;;27.61;35.06;100689.03;4994914;28;20286;-85
2021/07/30 10:01:20;;;;;;;;;;;;;;;26.77;36.41;100687.06;4995990;28;19967;-84
2021/07/30 10:03:46;;;;;;;;;;;;;;;27.89;34.94;100673.44;5012908;28;19924;-82
2021/07/30 10:06:15;;;;;;;;;;;;;;;27.43;35.32;100681.03;5013314;28;19917;-82
2021/07/30 10:08:43;;;;;;;;;;;;;;;27.34;35.45;100677.47;4995383;28;19925;-81
2021/07/30 10:11:12;;;;;;;;;;;;;;;28.21;34.06;100667.72;5012894;28;19929;-82
2021/07/30 10:13:46;;;;;;;;;;;;;;;28.31;34.08;100665.50;4995705;28;20069;-82
2021/07/30 10:16:11;;;;;;;;;;;;;;;28.42;33.51;100661.34;5002627;28;19921;-83
2021/07/30 10:18:36;;;;;;;;;;;;;;;28.34;33.44;100669.78;5015270;28;19917;-86
2021/07/30 10:21:02;;;;;;;;;;;;;;;28.17;34.30;100664.44;5015389;28;19928;-83
2021/07/30 10:23:28;;;;;;;;;;;;;;;27.87;35.19;100670.00;5033359;28;19929;-82
2021/07/30 10:25:54;;;;;;;;;;;;;;;28.05;34.96;100663.22;5015377;28;19974;-80
2021/07/30 10:28:21;;;;;;;;;;;;;;;27.62;35.52;100669.41;5017221;28;19917;-85
2021/07/30 10:30:50;;;;;;;;;;;;;;;27.80;35.22;100652.34;5037091;28;19932;-82
2021/07/30 10:33:40;;;;;;;;;;;;;;;27.52;35.63;100664.13;5043996;28;19921;-80
2021/07/30 10:36:25;;;;;;;;;;;;;;;27.45;36.34;100660.38;5055071;28;19921;-81
2021/07/30 10:39:04;;;;;;;;;;;;;;;27.49;36.48;100653.38;5038954;28;19924;-81
2021/07/30 10:41:29;;;;;;;;;;;;;;;28.70;35.02;100652.28;5056345;28;20293;-80
2021/07/30 10:44:01;;;;;;;;;;;;;;;28.89;34.63;100651.63;5055010;28;20024;-80
2021/07/30 10:46:26;;;;;;;;;;;;;;;27.88;36.06;100649.47;5036918;28;19924;-80
2021/07/30 10:48:54;;;;;;;;;;;;;;;27.41;36.84;100648.75;5055011;28;19917;-81
2021/07/30 10:51:20;;;;;;;;;;;;;;;27.15;36.55;100657.47;5036754;28;19917;-81
2021/07/30 10:53:45;;;;;;;;;;;;;;;27.15;36.84;100649.16;5037189;28;19923;-79
2021/07/30 10:56:16;;;;;;;;;;;;;;;27.55;36.12;100651.75;5036784;28;20004;-81
2021/07/30 10:58:44;;;;;;;;;;;;;;;27.31;36.93;100648.16;5037073;28;19917;-81
2021/07/30 11:01:36;;;;;;;;;;;;;;;27.86;36.24;100648.81;5043390;28;19956;-85
2021/07/30 11:04:02;;;;;;;;;;;;;;;27.68;36.47;100640.00;4998180;28;19920;-86
2021/07/30 11:06:28;;;;;;;;;;;;;;;26.83;38.37;100645.59;5037160;28;19967;-83
2021/07/30 11:09:06;;;;;;;;;;;;;;;27.01;37.70;100648.06;5036884;28;19916;-84
2021/07/30 11:11:38;;;;;;;;;;;;;;;27.84;36.28;100644.47;5032255;28;19968;-89
2021/07/30 11:14:07;;;;;;;;;;;;;;;27.92;36.44;100639.69;5038037;28;19928;-87
2021/07/30 11:16:32;;;;;;;;;;;;;;;26.48;38.54;100652.53;5050794;28;19917;-86
2021/07/30 11:19:00;;;;;;;;;;;;;;;26.18;39.24;100636.59;5037969;28;19917;-85
2021/07/30 11:21:27;;;;;;;;;;;;;;;27.23;37.30;100639.88;5055098;28;19925;-85
2021/07/30 11:23:53;;;;;;;;;;;;;;;27.24;37.30;100642.47;5054748;28;19939;-87
2021/07/30 11:26:19;;;;;;;;;;;;;;;25.94;39.63;100639.44;5038455;28;19939;-90
2021/07/30 11:28:52;;;;;;;;;;;;;;;25.83;39.85;100641.53;5038836;28;19935;-87
2021/07/30 11:31:20;;;;;;;;;;;;;;;26.62;38.57;100648.13;5021083;28;19929;-91
2021/07/30 11:33:46;;;;;;;;;;;;;;;25.75;40.29;100646.25;5038368;28;19927;-83
2021/07/30 11:36:11;;;;;;;;;;;;;;;26.40;38.75;100636.81;5037300;28;19917;-87
2021/07/30 11:38:47;;;;;;;;;;;;;;;26.01;39.52;100651.53;5036600;28;20382;-87
2021/07/30 11:41:14;;;;;;;;;;;;;;;26.68;38.72;100647.44;5036653;28;19933;-83
2021/07/30 11:43:55;;;;;;;;;;;;;;;26.39;38.68;100651.75;5035867;28;19924;-84
2021/07/30 11:46:20;;;;;;;;;;;;;;;27.13;37.64;100656.81;5031801;28;20326;-87
2021/07/30 11:48:46;;;;;;;;;;;;;;;25.71;41.78;100654.06;5055595;28;19925;-87
2021/07/30 11:51:11;;;;;;;;;;;;;;;26.60;41.02;100653.00;5055588;28;19963;-86
2021/07/30 11:53:38;;;;;;;;;;;;;;;27.15;40.21;100642.75;5037401;28;19917;-85
2021/07/30 11:56:03;;;;;;;;;;;;;;;26.62;40.67;100660.09;5054638;28;19920;-89
2021/07/30 11:58:29;;;;;;;;;;;;;;;26.63;40.58;100645.19;5037675;28;19917;-90
2021/07/30 12:01:07;;;;;;;;;;;;;;;26.57;41.01;100645.03;5038340;28;19923;-89
2021/07/30 12:03:32;;;;;;;;;;;;;;;27.24;39.60;100644.38;5032901;28;19923;-89
2021/07/30 12:06:13;;;;;;;;;;;;;;;26.22;41.63;100636.22;5038965;28;19921;-92
2021/07/30 12:08:44;;;;;;;;;;;;;;;26.83;40.39;100634.47;5034538;28;19917;-90
2021/07/30 12:11:12;;;;;;;;;;;;;;;26.07;42.46;100631.41;5032822;28;19931;-91
2021/07/30 12:13:38;;;;;;;;;;;;;;;26.49;41.32;100637.63;5037224;28;20443;-89
2021/07/30 12:16:03;;;;;;;;;;;;;;;26.62;40.77;100628.72;5035336;28;19921;-88
2021/07/30 12:18:28;;;;;;;;;;;;;;;26.77;40.31;100631.56;5037761;28;19927;-87
2021/07/30 12:21:04;;;;;;;;;;;;;;;26.68;40.55;100639.13;5037814;28;19917;-85
2021/07/30 12:23:32;;;;;;;;;;;;;;;27.75;38.65;100621.50;5054987;28;20365;-85
2021/07/30 12:25:57;;;;;;;;;;;;;;;27.32;39.86;100637.88;5028847;28;20301;-86
2021/07/30 12:28:24;;;;;;;;;;;;;;;27.59;40.29;100634.50;5053715;28;19920;-86
2021/07/30 12:30:50;;;;;;;;;;;;;;;26.22;43.62;100631.53;5036088;28;19920;-85
2021/07/30 12:33:26;;;;;;;;;;;;;;;26.86;41.64;100633.25;5053913;28;19917;-86